Time;durP1;ratioP1;P1;durP2;ratioP2;P2;SDS_P1;SDS_P2;PMS_P1;PMS_P2;Temp;Humidity;BMP_temperature;BMP_pressure;BME280_temperature;BME280_humidity;BME280_pressure;Samples;Min_cycle;Max_cycle;Signal;HPM_P1;HPM_P2
2021/09/01 00:00:37;;;;;;;0.50;0.40;;;15.00;99.90;;;;;;4995213;28;20476;-83
2021/09/01 00:03:04;;;;;;;0.50;0.40;;;15.10;99.90;;;;;;4987916;28;20444;-83
2021/09/01 00:05:32;;;;;;;0.50;0.30;;;15.10;99.90;;;;;;4996175;28;20862;-83
2021/09/01 00:07:58;;;;;;;0.50;0.40;;;15.20;99.90;;;;;;4996534;28;20439;-84
2021/09/01 00:10:26;;;;;;;0.50;0.40;;;15.20;99.90;;;;;;4995862;28;20453;-83
2021/09/01 00:12:52;;;;;;;0.50;0.40;;;15.20;99.90;;;;;;4996471;28;20442;-84
2021/09/01 00:15:19;;;;;;;0.50;0.40;;;15.20;99.90;;;;;;4997878;28;20443;-83
2021/09/01 00:17:46;;;;;;;0.50;0.40;;;15.20;99.90;;;;;;4999743;28;20443;-82
2021/09/01 00:20:13;;;;;;;0.50;0.30;;;15.30;99.90;;;;;;4998560;28;20483;-83
2021/09/01 00:22:41;;;;;;;0.50;0.30;;;15.40;99.90;;;;;;4998896;28;20941;-83
2021/09/01 00:25:09;;;;;;;0.50;0.40;;;15.40;99.90;;;;;;4980811;28;21134;-83
2021/09/01 00:27:36;;;;;;;0.50;0.40;;;15.40;99.90;;;;;;4980109;28;20448;-83
2021/09/01 00:30:05;;;;;;;1.73;1.07;;;15.40;99.90;;;;;;4979262;28;21001;-82
2021/09/01 00:32:32;;;;;;;0.50;0.40;;;15.40;99.90;;;;;;4979490;28;20476;-82
2021/09/01 00:34:59;;;;;;;0.50;0.30;;;15.50;99.90;;;;;;4979596;28;20444;-82
2021/09/01 00:37:26;;;;;;;0.50;0.50;;;15.40;99.90;;;;;;4980015;28;20441;-82
2021/09/01 00:39:54;;;;;;;0.50;0.37;;;15.50;99.90;;;;;;4978610;28;20465;-83
2021/09/01 00:42:20;;;;;;;0.50;0.40;;;15.50;99.90;;;;;;4979045;28;20445;-82
2021/09/01 00:44:47;;;;;;;0.50;0.40;;;15.50;99.90;;;;;;4979566;28;20440;-83
2021/09/01 00:47:17;;;;;;;0.50;0.30;;;15.40;99.90;;;;;;4979771;28;20448;-83
2021/09/01 00:49:44;;;;;;;0.50;0.40;;;15.50;99.90;;;;;;4982028;28;20480;-82
2021/09/01 00:52:12;;;;;;;0.50;0.40;;;15.50;99.90;;;;;;4978422;28;20444;-82
2021/09/01 00:54:39;;;;;;;1.27;1.17;;;15.50;99.90;;;;;;4978090;28;20478;-82
2021/09/01 00:57:09;;;;;;;0.50;0.30;;;15.40;99.90;;;;;;4988339;28;20441;-83
2021/09/01 00:59:38;;;;;;;0.50;0.40;;;15.40;99.90;;;;;;4999171;28;20471;-84
2021/09/01 01:02:06;;;;;;;0.50;0.30;;;15.40;99.90;;;;;;4997789;28;20863;-83
2021/09/01 01:04:34;;;;;;;0.50;0.30;;;15.40;99.90;;;;;;4998825;28;20449;-83
2021/09/01 01:07:02;;;;;;;0.50;0.30;;;15.40;99.90;;;;;;4998448;28;20449;-84
2021/09/01 01:09:29;;;;;;;0.50;0.30;;;15.50;99.90;;;;;;4998507;28;20463;-79
2021/09/01 01:12:04;;;;;;;0.50;0.40;;;15.40;99.90;;;;;;4998487;28;20440;-83
2021/09/01 01:14:34;;;;;;;0.50;0.30;;;15.40;99.90;;;;;;4998774;28;20440;-82
2021/09/01 01:17:01;;;;;;;0.50;0.40;;;15.40;99.90;;;;;;4998673;28;20475;-83
2021/09/01 01:19:28;;;;;;;0.50;0.30;;;15.50;99.90;;;;;;4998893;28;20460;-82
2021/09/01 01:21:56;;;;;;;0.50;0.30;;;15.40;99.90;;;;;;4995691;28;20476;-82
2021/09/01 01:24:23;;;;;;;0.50;0.40;;;15.40;99.90;;;;;;4980314;28;20494;-82
2021/09/01 01:26:51;;;;;;;0.50;0.30;;;15.40;99.90;;;;;;4988894;28;20440;-82
2021/09/01 01:29:18;;;;;;;0.50;0.33;;;15.40;99.90;;;;;;4996048;28;20928;-82
2021/09/01 01:31:45;;;;;;;0.50;0.30;;;15.40;99.90;;;;;;4996309;28;20444;-83
2021/09/01 01:34:15;;;;;;;0.50;0.40;;;15.40;99.90;;;;;;4996490;28;20440;-83
2021/09/01 01:36:42;;;;;;;0.50;0.30;;;15.40;99.90;;;;;;4996202;28;20787;-79
2021/09/01 01:39:09;;;;;;;0.50;0.30;;;15.40;99.90;;;;;;4996345;28;20463;-83
2021/09/01 01:41:36;;;;;;;0.50;0.40;;;15.40;99.90;;;;;;4995293;28;20485;-83
2021/09/01 01:44:04;;;;;;;0.50;0.40;;;15.40;99.90;;;;;;4995540;28;20445;-82
2021/09/01 01:46:31;;;;;;;0.50;0.40;;;15.40;99.90;;;;;;4996156;28;20448;-82
2021/09/01 01:48:58;;;;;;;0.50;0.40;;;15.40;99.90;;;;;;4996167;28;20468;-82
2021/09/01 01:51:24;;;;;;;0.50;0.40;;;15.40;99.90;;;;;;4969205;28;20485;-82
2021/09/01 01:53:51;;;;;;;0.50;0.30;;;15.40;99.90;;;;;;4976154;28;20455;-83
2021/09/01 01:56:18;;;;;;;0.50;0.30;;;15.40;99.90;;;;;;4976336;28;20444;-83
2021/09/01 01:58:45;;;;;;;0.50;0.40;;;15.40;99.90;;;;;;4975978;28;20441;-82
2021/09/01 02:01:13;;;;;;;0.50;0.40;;;15.40;99.90;;;;;;4975210;28;20476;-82
2021/09/01 02:03:39;;;;;;;0.50;0.40;;;15.30;99.90;;;;;;4977913;28;20808;-83
2021/09/01 02:06:06;;;;;;;0.50;0.30;;;15.30;99.90;;;;;;4977889;28;21089;-82
2021/09/01 02:08:33;;;;;;;0.50;0.30;;;15.30;99.90;;;;;;4978224;28;20448;-83
2021/09/01 02:11:00;;;;;;;0.50;0.40;;;15.40;99.90;;;;;;4977900;28;20449;-84
2021/09/01 02:13:26;;;;;;;0.83;0.83;;;15.40;99.90;;;;;;4977458;28;20997;-83
2021/09/01 02:15:53;;;;;;;0.50;0.33;;;15.40;99.90;;;;;;4977996;28;20448;-84
2021/09/01 02:18:21;;;;;;;0.50;0.40;;;15.40;99.90;;;;;;4978753;28;20449;-83
2021/09/01 02:20:48;;;;;;;0.50;0.30;;;15.40;99.90;;;;;;4977858;28;20488;-83
2021/09/01 02:23:14;;;;;;;0.50;0.40;;;15.40;99.90;;;;;;4974089;28;20438;-82
2021/09/01 02:25:41;;;;;;;0.50;0.40;;;15.40;99.90;;;;;;4974227;28;20434;-83
2021/09/01 02:28:08;;;;;;;0.50;0.40;;;15.40;99.90;;;;;;4977498;28;20456;-83
2021/09/01 02:30:35;;;;;;;0.50;0.40;;;15.40;99.90;;;;;;4977081;28;20468;-83
2021/09/01 02:33:01;;;;;;;1.00;0.90;;;15.40;99.90;;;;;;4978040;28;20452;-83
2021/09/01 02:35:30;;;;;;;0.50;0.30;;;15.40;99.90;;;;;;4977076;28;20444;-83
2021/09/01 02:37:56;;;;;;;0.50;0.30;;;15.40;99.90;;;;;;4977854;28;20446;-83
2021/09/01 02:40:23;;;;;;;0.50;0.40;;;15.40;99.90;;;;;;4977241;28;20472;-83
2021/09/01 02:42:50;;;;;;;0.50;0.30;;;15.30;99.90;;;;;;4976979;28;20503;-83
2021/09/01 02:45:17;;;;;;;0.50;0.30;;;15.30;99.90;;;;;;4978124;28;20445;-81
2021/09/01 02:47:45;;;;;;;0.50;0.40;;;15.30;99.90;;;;;;4977463;28;20442;-83
2021/09/01 02:50:13;;;;;;;0.50;0.30;;;15.30;99.90;;;;;;4976832;28;20470;-84
2021/09/01 02:52:42;;;;;;;0.50;0.30;;;15.30;99.90;;;;;;4977219;28;20445;-83
2021/09/01 02:55:09;;;;;;;0.50;0.40;;;15.30;99.90;;;;;;4977017;28;20437;-82
2021/09/01 02:57:36;;;;;;;0.50;0.40;;;15.30;99.90;;;;;;4977421;28;21018;-83
2021/09/01 03:00:04;;;;;;;0.50;0.30;;;15.30;99.90;;;;;;4976904;28;20472;-82
2021/09/01 03:02:31;;;;;;;0.50;0.40;;;15.30;99.90;;;;;;4977197;28;20499;-83
2021/09/01 03:04:58;;;;;;;0.50;0.40;;;15.30;99.90;;;;;;4977342;28;20451;-83
2021/09/01 03:07:25;;;;;;;0.50;0.30;;;15.20;99.90;;;;;;4976917;28;20467;-82
2021/09/01 03:09:53;;;;;;;0.50;0.30;;;15.20;99.90;;;;;;4977503;28;20471;-82
2021/09/01 03:12:19;;;;;;;0.50;0.30;;;15.30;99.90;;;;;;4976480;28;20441;-83
2021/09/01 03:14:46;;;;;;;0.50;0.40;;;15.30;99.90;;;;;;4977754;28;20445;-83
2021/09/01 03:17:13;;;;;;;0.50;0.30;;;15.30;99.90;;;;;;4977437;28;20441;-83
2021/09/01 03:19:40;;;;;;;0.50;0.30;;;15.20;99.90;;;;;;4977731;28;20457;-82
2021/09/01 03:22:06;;;;;;;0.50;0.30;;;15.30;99.90;;;;;;4976302;28;20481;-83
2021/09/01 03:24:33;;;;;;;0.50;0.33;;;15.30;99.90;;;;;;4969840;28;20437;-83
2021/09/01 03:27:01;;;;;;;0.50;0.40;;;15.30;99.90;;;;;;4976854;28;20437;-83
2021/09/01 03:29:29;;;;;;;0.50;0.37;;;15.30;99.90;;;;;;4976862;28;20473;-83
2021/09/01 03:31:56;;;;;;;0.50;0.40;;;15.30;99.90;;;;;;4976683;28;20455;-83
2021/09/01 03:34:23;;;;;;;0.83;0.83;;;15.30;99.90;;;;;;4976599;28;20441;-83
2021/09/01 03:36:50;;;;;;;0.50;0.30;;;15.30;99.90;;;;;;4977288;28;20449;-83
2021/09/01 03:39:16;;;;;;;0.50;0.40;;;15.30;99.90;;;;;;4977084;28;20461;-83
2021/09/01 03:41:43;;;;;;;0.50;0.30;;;15.30;99.90;;;;;;4976741;28;20484;-83
2021/09/01 03:44:11;;;;;;;0.50;0.40;;;15.30;99.90;;;;;;4976743;28;20448;-82
2021/09/01 03:46:38;;;;;;;0.50;0.40;;;15.30;99.90;;;;;;4976988;28;20460;-83
2021/09/01 03:49:05;;;;;;;0.50;0.30;;;15.30;99.90;;;;;;4976286;28;20470;-82
2021/09/01 03:51:32;;;;;;;0.50;0.30;;;15.30;99.90;;;;;;4979672;28;20449;-82
2021/09/01 03:53:58;;;;;;;0.50;0.30;;;15.20;99.90;;;;;;4979848;28;20445;-83
2021/09/01 03:56:25;;;;;;;0.50;0.30;;;15.20;99.90;;;;;;4980048;28;20962;-83
2021/09/01 03:58:52;;;;;;;1.50;1.50;;;15.20;99.90;;;;;;4980333;28;20998;-82
2021/09/01 04:01:20;;;;;;;0.50;0.40;;;15.20;99.90;;;;;;4979183;28;20479;-83
2021/09/01 04:03:47;;;;;;;0.50;0.30;;;15.20;99.90;;;;;;4979309;28;20437;-82
2021/09/01 04:06:13;;;;;;;0.50;0.30;;;15.20;99.90;;;;;;4979284;28;20447;-83
2021/09/01 04:08:40;;;;;;;0.50;0.30;;;15.20;99.90;;;;;;4979791;28;20455;-83
2021/09/01 04:11:07;;;;;;;0.50;0.37;;;15.10;99.90;;;;;;4978836;28;20467;-83
2021/09/01 04:13:34;;;;;;;0.50;0.30;;;15.10;99.90;;;;;;4978963;28;20449;-83
2021/09/01 04:16:01;;;;;;;0.50;0.40;;;15.20;99.90;;;;;;4978210;28;20441;-82
2021/09/01 04:18:29;;;;;;;0.50;0.30;;;15.20;99.90;;;;;;4979037;28;20803;-83
2021/09/01 04:20:56;;;;;;;0.50;0.30;;;15.20;99.90;;;;;;4978926;28;20453;-83
2021/09/01 04:23:22;;;;;;;0.50;0.30;;;15.20;99.90;;;;;;4993782;28;20483;-83
2021/09/01 04:25:49;;;;;;;0.50;0.40;;;15.20;99.90;;;;;;4998925;28;20440;-83
2021/09/01 04:28:16;;;;;;;0.50;0.40;;;15.20;99.90;;;;;;4996505;28;20436;-82
2021/09/01 04:30:43;;;;;;;0.50;0.37;;;15.30;99.90;;;;;;4997388;28;20468;-83
2021/09/01 04:33:09;;;;;;;0.50;0.30;;;15.30;99.90;;;;;;4998697;28;20436;-81
2021/09/01 04:35:38;;;;;;;0.50;0.30;;;15.30;99.90;;;;;;4997856;28;20455;-83
2021/09/01 04:38:05;;;;;;;0.50;0.30;;;15.30;99.90;;;;;;4998300;28;20444;-82
2021/09/01 04:40:32;;;;;;;0.50;0.30;;;15.30;99.90;;;;;;4997713;28;20815;-79
2021/09/01 04:42:59;;;;;;;0.50;0.30;;;15.20;99.90;;;;;;4997875;28;20472;-84
2021/09/01 04:45:25;;;;;;;0.50;0.30;;;15.20;99.90;;;;;;4998072;28;20815;-82
2021/09/01 04:47:52;;;;;;;0.50;0.37;;;15.10;99.90;;;;;;4998423;28;20809;-82
2021/09/01 04:50:19;;;;;;;0.50;0.30;;;15.10;99.90;;;;;;4998269;28;20462;-82
2021/09/01 04:52:47;;;;;;;0.50;0.30;;;15.20;99.90;;;;;;4999475;28;20447;-82
2021/09/01 04:55:15;;;;;;;0.50;0.30;;;15.20;99.90;;;;;;4977828;28;20830;-81
2021/09/01 04:57:42;;;;;;;0.50;0.40;;;15.30;99.90;;;;;;4990761;28;20444;-82
2021/09/01 05:00:10;;;;;;;0.50;0.30;;;15.30;99.90;;;;;;4998323;28;20472;-82
2021/09/01 05:02:37;;;;;;;0.50;0.40;;;15.20;99.90;;;;;;4998128;28;21032;-81
2021/09/01 05:05:04;;;;;;;0.50;0.30;;;15.20;99.90;;;;;;5001810;28;20444;-83
2021/09/01 05:07:31;;;;;;;0.50;0.30;;;15.20;99.90;;;;;;5003680;28;20444;-83
2021/09/01 05:09:59;;;;;;;0.50;0.30;;;15.20;99.90;;;;;;5002942;28;20468;-83
2021/09/01 05:12:27;;;;;;;0.50;0.40;;;15.20;99.90;;;;;;5003040;28;20432;-83
2021/09/01 05:14:53;;;;;;;0.50;0.40;;;15.20;99.90;;;;;;5003128;28;20454;-83
2021/09/01 05:17:21;;;;;;;0.50;0.30;;;15.30;99.90;;;;;;5003711;28;20814;-83
2021/09/01 05:19:47;;;;;;;0.50;0.37;;;15.30;99.90;;;;;;5003508;28;20485;-83
2021/09/01 05:22:18;;;;;;;0.50;0.30;;;15.30;99.90;;;;;;5004150;28;20491;-82
2021/09/01 05:25:00;;;;;;;0.50;0.30;;;15.30;99.90;;;;;;4996566;28;20974;-82
2021/09/01 05:27:32;;;;;;;0.50;0.40;;;15.30;99.90;;;;;;5004625;28;20423;-82
2021/09/01 05:30:00;;;;;;;0.50;0.30;;;15.30;99.90;;;;;;5004680;28;20456;-83
2021/09/01 05:32:29;;;;;;;0.50;0.30;;;15.30;99.90;;;;;;5004646;28;20479;-83
2021/09/01 05:34:58;;;;;;;0.50;0.40;;;15.30;99.90;;;;;;5004016;28;20483;-82
2021/09/01 05:37:26;;;;;;;0.50;0.30;;;15.30;99.90;;;;;;4996105;28;20436;-82
2021/09/01 05:39:56;;;;;;;0.50;0.33;;;15.40;99.90;;;;;;5001485;28;20471;-83
2021/09/01 05:42:25;;;;;;;0.50;0.30;;;15.40;99.90;;;;;;5003382;28;20487;-82
2021/09/01 05:44:53;;;;;;;0.53;0.47;;;15.40;99.90;;;;;;5003013;28;20534;-82
2021/09/01 05:47:21;;;;;;;0.50;0.30;;;15.40;99.90;;;;;;5004014;28;20946;-83
2021/09/01 05:49:50;;;;;;;0.50;0.30;;;15.40;99.90;;;;;;5004684;28;20571;-82
2021/09/01 05:52:18;;;;;;;0.50;0.30;;;15.40;99.90;;;;;;5003854;28;20451;-82
2021/09/01 05:54:47;;;;;;;0.50;0.30;;;15.40;99.90;;;;;;4987237;28;20445;-83
2021/09/01 05:57:16;;;;;;;0.50;0.37;;;15.50;99.90;;;;;;4975915;28;20467;-83
2021/09/01 05:59:46;;;;;;;0.50;0.30;;;15.50;99.90;;;;;;4985002;28;20475;-83
2021/09/01 06:02:21;;;;;;;0.50;0.30;;;15.60;99.90;;;;;;4984482;28;20836;-82
2021/09/01 06:04:48;;;;;;;0.50;0.30;;;15.60;99.90;;;;;;4976531;28;20449;-82
2021/09/01 06:07:18;;;;;;;0.50;0.30;;;15.70;99.90;;;;;;4983092;28;20441;-82
2021/09/01 06:09:50;;;;;;;0.50;0.30;;;15.70;99.90;;;;;;4981259;28;20472;-83
2021/09/01 06:12:20;;;;;;;0.50;0.30;;;15.70;99.90;;;;;;4981053;28;20425;-82
2021/09/01 06:14:48;;;;;;;0.50;0.30;;;15.70;99.90;;;;;;4983297;28;20447;-81
2021/09/01 06:17:16;;;;;;;0.50;0.40;;;15.80;99.90;;;;;;4983488;28;20839;-82
2021/09/01 06:19:42;;;;;;;0.50;0.30;;;15.80;99.90;;;;;;4982591;28;20471;-82
2021/09/01 06:22:09;;;;;;;0.50;0.30;;;15.70;99.90;;;;;;4983128;28;20487;-82
2021/09/01 06:24:36;;;;;;;0.50;0.30;;;15.80;99.90;;;;;;4983080;28;20524;-82
2021/09/01 06:27:04;;;;;;;0.50;0.40;;;15.80;99.90;;;;;;4983795;28;20467;-82
2021/09/01 06:29:31;;;;;;;0.50;0.30;;;15.80;99.90;;;;;;4982641;28;20455;-82
2021/09/01 06:31:57;;;;;;;0.50;0.30;;;15.90;99.90;;;;;;4982443;28;20483;-82
2021/09/01 06:34:26;;;;;;;0.50;0.30;;;15.90;99.90;;;;;;4983475;28;20496;-81
2021/09/01 06:36:53;;;;;;;0.50;0.40;;;16.00;99.90;;;;;;4982801;28;20460;-83
2021/09/01 06:39:20;;;;;;;0.50;0.40;;;16.00;99.90;;;;;;4983003;28;20470;-81
2021/09/01 06:41:46;;;;;;;0.50;0.30;;;16.00;99.90;;;;;;4980891;28;20449;-82
2021/09/01 06:44:14;;;;;;;0.50;0.30;;;16.10;99.90;;;;;;4980853;28;20453;-83
2021/09/01 06:46:41;;;;;;;0.50;0.40;;;16.10;99.90;;;;;;4981769;28;20799;-82
2021/09/01 06:49:08;;;;;;;0.50;0.40;;;16.10;99.90;;;;;;4981696;28;20497;-81
2021/09/01 06:51:36;;;;;;;0.50;0.40;;;16.10;99.90;;;;;;4980747;28;20481;-81
2021/09/01 06:54:02;;;;;;;0.50;0.40;;;16.10;99.90;;;;;;4976409;28;20489;-82
2021/09/01 06:56:29;;;;;;;0.50;0.30;;;16.10;99.90;;;;;;4980868;28;20441;-82
2021/09/01 06:58:56;;;;;;;0.50;0.40;;;16.10;99.90;;;;;;4980508;28;20468;-82
2021/09/01 07:01:23;;;;;;;0.50;0.30;;;16.20;99.90;;;;;;4980373;28;20437;-81
2021/09/01 07:03:53;;;;;;;0.50;0.30;;;16.30;99.90;;;;;;4982788;28;20477;-82
2021/09/01 07:06:20;;;;;;;0.50;0.40;;;16.30;99.90;;;;;;4981472;28;20441;-82
2021/09/01 07:08:48;;;;;;;0.50;0.40;;;16.40;99.90;;;;;;4981741;28;20441;-82
2021/09/01 07:11:15;;;;;;;0.50;0.30;;;16.40;99.90;;;;;;4980884;28;20445;-82
2021/09/01 07:13:43;;;;;;;0.50;0.30;;;16.50;99.90;;;;;;4981975;28;20454;-82
2021/09/01 07:16:09;;;;;;;0.50;0.30;;;16.60;99.90;;;;;;4981115;28;20442;-82
2021/09/01 07:18:36;;;;;;;0.50;0.30;;;16.60;99.90;;;;;;4980926;28;20452;-82
2021/09/01 07:21:03;;;;;;;0.50;0.30;;;16.70;99.90;;;;;;4980647;28;20453;-83
2021/09/01 07:23:30;;;;;;;0.50;0.40;;;16.70;99.90;;;;;;4982215;28;20503;-82
2021/09/01 07:25:58;;;;;;;0.50;0.33;;;16.70;99.90;;;;;;4986844;28;20453;-83
2021/09/01 07:28:26;;;;;;;0.50;0.30;;;16.70;99.90;;;;;;4986125;28;20496;-83
2021/09/01 07:30:52;;;;;;;0.50;0.30;;;16.70;99.90;;;;;;4985805;28;20777;-82
2021/09/01 07:33:19;;;;;;;0.50;0.30;;;16.80;99.90;;;;;;4986729;28;20437;-83
2021/09/01 07:35:46;;;;;;;0.50;0.40;;;16.80;99.90;;;;;;4985740;28;20445;-82
2021/09/01 07:38:14;;;;;;;0.50;0.30;;;16.80;99.90;;;;;;4985570;28;20445;-82
2021/09/01 07:40:42;;;;;;;0.50;0.30;;;16.90;99.90;;;;;;4984935;28;20529;-82
2021/09/01 07:43:10;;;;;;;0.50;0.30;;;16.90;99.90;;;;;;4984719;28;20491;-82
2021/09/01 07:45:36;;;;;;;0.50;0.30;;;16.90;99.90;;;;;;4986646;28;20437;-82
2021/09/01 07:48:03;;;;;;;0.50;0.40;;;17.00;99.90;;;;;;4985875;28;21122;-81
2021/09/01 07:50:32;;;;;;;0.50;0.30;;;17.10;99.90;;;;;;4984961;28;20473;-82
2021/09/01 07:53:00;;;;;;;0.50;0.30;;;17.10;99.90;;;;;;4986161;28;20448;-83
2021/09/01 07:55:27;;;;;;;0.50;0.37;;;17.10;99.90;;;;;;4981645;28;20505;-82
2021/09/01 07:57:54;;;;;;;0.50;0.30;;;17.10;99.90;;;;;;4986104;28;20433;-82
2021/09/01 08:00:22;;;;;;;0.50;0.30;;;17.20;99.90;;;;;;4984304;28;20461;-81
2021/09/01 08:02:50;;;;;;;0.50;0.40;;;17.10;99.90;;;;;;4986428;28;20487;-83
2021/09/01 08:05:16;;;;;;;0.50;0.30;;;17.20;99.90;;;;;;4985202;28;20537;-82
2021/09/01 08:07:43;;;;;;;0.50;0.50;;;17.20;99.90;;;;;;4985413;28;20437;-82
2021/09/01 08:10:10;;;;;;;0.50;0.30;;;17.30;99.90;;;;;;4983153;28;20461;-81
2021/09/01 08:12:40;;;;;;;0.50;0.30;;;17.30;99.90;;;;;;4978980;28;20962;-80
2021/09/01 08:15:08;;;;;;;0.50;0.30;;;17.40;99.90;;;;;;4980438;28;20919;-81
2021/09/01 08:17:36;;;;;;;0.53;0.53;;;17.50;99.90;;;;;;4980247;28;20472;-82
2021/09/01 08:20:04;;;;;;;0.50;0.30;;;17.50;99.90;;;;;;4979085;28;20465;-82
2021/09/01 08:22:31;;;;;;;0.50;0.30;;;17.50;99.90;;;;;;4979839;28;20446;-82
2021/09/01 08:24:57;;;;;;;0.50;0.30;;;17.50;99.90;;;;;;4979092;28;20449;-82
2021/09/01 08:27:26;;;;;;;0.50;0.37;;;17.50;99.90;;;;;;4980124;28;20437;-83
2021/09/01 08:29:52;;;;;;;0.50;0.30;;;17.50;99.90;;;;;;4981226;28;20915;-82
2021/09/01 08:32:19;;;;;;;1.27;0.90;;;17.60;99.90;;;;;;4981187;28;20471;-82
2021/09/01 08:34:47;;;;;;;0.50;0.40;;;17.70;99.90;;;;;;4981520;28;20445;-83
2021/09/01 08:37:14;;;;;;;0.50;0.30;;;17.70;99.90;;;;;;4981283;28;20452;-81
2021/09/01 08:39:41;;;;;;;0.50;0.30;;;17.60;99.90;;;;;;4982548;28;20955;-83
2021/09/01 08:42:08;;;;;;;0.50;0.37;;;17.60;99.90;;;;;;4983992;28;20943;-82
2021/09/01 08:44:34;;;;;;;0.50;0.30;;;17.70;99.90;;;;;;4976665;28;20534;-83
2021/09/01 08:47:03;;;;;;;0.50;0.40;;;17.80;99.90;;;;;;4974141;28;20470;-83
2021/09/01 08:49:31;;;;;;;0.50;0.30;;;17.80;99.90;;;;;;4984501;28;20477;-80
2021/09/01 08:52:00;;;;;;;0.50;0.30;;;17.80;99.90;;;;;;4984907;28;20445;-83
2021/09/01 08:54:27;;;;;;;0.50;0.30;;;17.80;99.90;;;;;;4985147;28;20437;-82
2021/09/01 08:56:54;;;;;;;0.50;0.30;;;17.80;99.90;;;;;;4985558;28;20803;-82
2021/09/01 08:59:21;;;;;;;0.50;0.50;;;17.90;99.90;;;;;;4986027;28;20473;-83
2021/09/01 09:01:49;;;;;;;0.50;0.30;;;17.90;99.90;;;;;;4985622;28;20448;-82
2021/09/01 09:04:18;;;;;;;0.50;0.30;;;18.00;99.90;;;;;;4989732;28;20479;-81
2021/09/01 09:06:47;;;;;;;0.50;0.30;;;18.00;99.90;;;;;;4985146;28;20438;-82
2021/09/01 09:09:17;;;;;;;0.50;0.40;;;18.10;99.90;;;;;;4984958;28;20472;-82
2021/09/01 09:11:44;;;;;;;0.50;0.30;;;18.00;99.90;;;;;;4985025;28;20449;-82
2021/09/01 09:14:18;;;;;;;0.50;0.40;;;18.00;99.90;;;;;;4986627;28;20437;-82
2021/09/01 09:16:46;;;;;;;0.50;0.30;;;18.00;99.90;;;;;;4988103;28;20456;-81
2021/09/01 09:19:12;;;;;;;0.50;0.30;;;18.00;99.90;;;;;;4986095;28;20480;-82
2021/09/01 09:21:40;;;;;;;1.47;0.90;;;18.10;99.90;;;;;;4985332;28;20446;-82
2021/09/01 09:24:20;;;;;;;0.50;0.40;;;18.10;99.90;;;;;;4986777;28;20488;-82
2021/09/01 09:26:47;;;;;;;0.50;0.30;;;18.00;99.90;;;;;;4986094;28;20425;-83
2021/09/01 09:29:16;;;;;;;0.50;0.40;;;18.00;99.90;;;;;;4985722;28;20473;-83
2021/09/01 09:31:46;;;;;;;0.50;0.40;;;18.10;99.90;;;;;;4985297;28;20868;-82
2021/09/01 09:34:17;;;;;;;0.50;0.30;;;18.10;99.90;;;;;;4985885;28;20446;-82
2021/09/01 09:37:03;;;;;;;0.50;0.37;;;18.00;99.90;;;;;;4985607;28;20528;-79
2021/09/01 09:39:46;;;;;;;0.50;0.30;;;18.10;99.90;;;;;;4985141;28;20479;-82
2021/09/01 09:42:14;;;;;;;0.50;0.30;;;18.10;99.90;;;;;;4985247;28;20441;-83
2021/09/01 09:44:41;;;;;;;0.50;0.30;;;18.00;99.90;;;;;;4984821;28;20477;-80
2021/09/01 09:47:08;;;;;;;0.50;0.30;;;18.00;99.90;;;;;;4984187;28;20444;-82
2021/09/01 09:49:35;;;;;;;0.50;0.40;;;18.10;99.90;;;;;;4984510;28;20839;-80
2021/09/01 09:52:14;;;;;;;0.50;0.30;;;18.20;99.90;;;;;;4985373;28;20441;-81
2021/09/01 09:54:41;;;;;;;0.50;0.30;;;18.40;99.90;;;;;;4985565;28;20441;-80
2021/09/01 09:57:11;;;;;;;0.50;0.40;;;18.40;99.90;;;;;;4983976;28;20446;-82
2021/09/01 09:59:37;;;;;;;0.50;0.30;;;18.40;99.90;;;;;;4985293;28;20465;-82
2021/09/01 10:02:05;;;;;;;0.50;0.40;;;18.40;99.90;;;;;;4984222;28;20530;-82
2021/09/01 10:04:32;;;;;;;5.87;1.57;;;18.30;99.90;;;;;;4985256;28;20481;-83
2021/09/01 10:06:59;;;;;;;0.50;0.30;;;18.30;99.90;;;;;;4985727;28;20445;-83
2021/09/01 10:09:26;;;;;;;0.50;0.30;;;18.30;99.90;;;;;;4985477;28;20459;-82
2021/09/01 10:11:53;;;;;;;0.50;0.30;;;18.40;99.90;;;;;;4984547;28;20458;-83
2021/09/01 10:14:23;;;;;;;0.50;0.50;;;18.50;99.90;;;;;;4985170;28;20433;-82
2021/09/01 10:16:56;;;;;;;0.50;0.30;;;18.60;99.90;;;;;;4985484;28;20517;-82
2021/09/01 10:19:27;;;;;;;0.50;0.30;;;18.60;99.90;;;;;;4985095;28;20468;-83
2021/09/01 10:21:58;;;;;;;0.50;0.30;;;18.80;99.90;;;;;;4984824;28;20459;-83
2021/09/01 10:24:30;;;;;;;0.50;0.40;;;18.80;99.90;;;;;;4984948;28;20484;-83
2021/09/01 10:27:22;;;;;;;0.50;0.30;;;18.80;99.90;;;;;;4984666;28;20446;-82
2021/09/01 10:29:55;;;;;;;0.50;0.30;;;18.80;99.90;;;;;;4982391;28;20465;-83
2021/09/01 10:32:27;;;;;;;0.50;0.30;;;18.90;99.90;;;;;;4983984;28;20442;-83
2021/09/01 10:35:31;;;;;;;0.50;0.40;;;19.00;99.90;;;;;;4985034;28;20893;-83
2021/09/01 10:38:04;;;;;;;0.50;0.30;;;19.10;99.90;;;;;;4984293;28;20439;-83
2021/09/01 10:40:54;;;;;;;0.50;0.40;;;19.20;99.90;;;;;;4984546;28;20459;-83
2021/09/01 10:43:21;;;;;;;0.50;0.30;;;19.20;99.90;;;;;;4984646;28;20810;-81
2021/09/01 10:45:57;;;;;;;0.50;0.30;;;19.20;99.90;;;;;;4983412;28;20810;-80
2021/09/01 10:48:24;;;;;;;0.50;0.40;;;19.20;99.90;;;;;;4983726;28;20510;-81
2021/09/01 10:50:51;;;;;;;0.50;0.30;;;18.90;99.90;;;;;;4982803;28;20469;-80
2021/09/01 10:53:21;;;;;;;0.50;0.30;;;19.00;99.90;;;;;;4983639;28;20495;-81
2021/09/01 10:55:58;;;;;;;0.50;0.40;;;19.10;99.90;;;;;;4983858;28;20451;-81
2021/09/01 10:58:33;;;;;;;0.50;0.30;;;19.10;99.90;;;;;;4982030;28;20459;-81
2021/09/01 11:01:08;;;;;;;0.50;0.40;;;19.10;99.90;;;;;;4983402;28;20537;-80
2021/09/01 11:03:37;;;;;;;0.50;0.40;;;19.20;99.90;;;;;;4983462;28;20484;-80
2021/09/01 11:06:11;;;;;;;0.50;0.40;;;19.30;99.90;;;;;;4982935;28;20448;-81
2021/09/01 11:08:38;;;;;;;0.50;0.30;;;19.30;99.90;;;;;;4983294;28;20446;-80
2021/09/01 11:11:06;;;;;;;0.50;0.40;;;19.30;99.90;;;;;;4982368;28;21006;-80
2021/09/01 11:13:43;;;;;;;0.50;0.40;;;19.30;99.90;;;;;;4982876;28;20458;-81
2021/09/01 11:16:21;;;;;;;0.50;0.40;;;19.40;99.90;;;;;;4983730;28;20471;-80
2021/09/01 11:19:02;;;;;;;0.50;0.30;;;19.50;99.90;;;;;;4983442;28;20454;-81
2021/09/01 11:21:29;;;;;;;0.50;0.30;;;19.50;99.90;;;;;;4984386;28;20451;-80
2021/09/01 11:23:57;;;;;;;0.50;0.40;;;19.40;99.90;;;;;;4983890;28;20476;-81
2021/09/01 11:26:32;;;;;;;0.50;0.30;;;19.30;99.90;;;;;;4986616;28;20472;-80
2021/09/01 11:28:59;;;;;;;0.50;0.30;;;19.30;99.90;;;;;;4984518;28;20550;-80
2021/09/01 11:31:28;;;;;;;0.50;0.40;;;19.30;99.90;;;;;;4982798;28;20922;-81
2021/09/01 11:33:56;;;;;;;0.50;0.40;;;19.40;99.90;;;;;;4983426;28;20438;-81
2021/09/01 11:36:28;;;;;;;0.50;0.40;;;19.40;99.90;;;;;;4983099;28;20444;-81
2021/09/01 11:38:56;;;;;;;0.50;0.30;;;19.40;99.90;;;;;;4983519;28;20463;-81
2021/09/01 11:41:24;;;;;;;0.50;0.30;;;19.30;99.90;;;;;;4982583;28;20443;-81
2021/09/01 11:43:57;;;;;;;0.50;0.30;;;19.40;99.90;;;;;;4982914;28;20472;-80
2021/09/01 11:46:24;;;;;;;0.50;0.30;;;19.40;99.90;;;;;;4982462;28;20452;-80
2021/09/01 11:48:52;;;;;;;0.50;0.30;;;19.40;99.90;;;;;;4983059;28;20444;-80
2021/09/01 11:51:22;;;;;;;0.63;0.63;;;19.40;99.90;;;;;;4983024;28;20444;-81
2021/09/01 11:53:49;;;;;;;0.50;0.30;;;19.40;99.90;;;;;;4983743;28;20471;-81
2021/09/01 11:56:15;;;;;;;0.50;0.30;;;19.50;99.90;;;;;;4983106;28;20451;-81
2021/09/01 11:58:42;;;;;;;0.50;0.30;;;19.60;99.90;;;;;;4983791;28;20453;-81
2021/09/01 12:01:14;;;;;;;0.50;0.30;;;19.80;99.90;;;;;;4982811;28;20455;-81
2021/09/01 12:03:42;;;;;;;0.50;0.30;;;19.80;99.90;;;;;;4983638;28;20469;-78
2021/09/01 12:06:11;;;;;;;0.50;0.30;;;19.70;99.90;;;;;;4983515;28;20448;-81
2021/09/01 12:08:45;;;;;;;0.50;0.30;;;19.50;99.90;;;;;;4983875;28;20443;-81
2021/09/01 12:11:13;;;;;;;0.50;0.30;;;19.60;99.90;;;;;;4984203;28;20451;-82
2021/09/01 12:13:41;;;;;;;0.50;0.30;;;19.60;99.90;;;;;;4987195;28;20447;-80
2021/09/01 12:16:08;;;;;;;0.50;0.30;;;19.50;99.90;;;;;;4986083;28;20470;-81
2021/09/01 12:18:51;;;;;;;0.50;0.30;;;19.60;99.90;;;;;;4986792;28;20446;-81
2021/09/01 12:21:21;;;;;;;0.50;0.40;;;19.70;99.90;;;;;;4987018;28;20527;-81
2021/09/01 12:24:12;;;;;;;0.50;0.30;;;19.80;99.90;;;;;;4987573;28;20451;-81
2021/09/01 12:26:50;;;;;;;0.50;0.33;;;19.90;99.90;;;;;;4986550;28;20523;-82
2021/09/01 12:29:33;;;;;;;0.50;0.40;;;19.90;99.90;;;;;;4987353;28;20471;-81
2021/09/01 12:32:01;;;;;;;0.50;0.30;;;19.90;99.90;;;;;;4986361;28;20546;-80
2021/09/01 12:34:30;;;;;;;0.50;0.30;;;19.80;99.90;;;;;;4985942;28;20439;-81
2021/09/01 12:37:02;;;;;;;0.50;0.30;;;19.70;99.90;;;;;;4986516;28;20468;-81
2021/09/01 12:39:40;;;;;;;0.50;0.40;;;19.50;99.90;;;;;;4986088;28;20854;-80
2021/09/01 12:42:07;;;;;;;0.50;0.30;;;19.50;99.90;;;;;;4985656;28;20452;-79
2021/09/01 12:44:46;;;;;;;0.50;0.30;;;19.50;99.90;;;;;;4985495;28;20483;-82
2021/09/01 12:47:13;;;;;;;0.50;0.30;;;19.50;99.90;;;;;;4986210;28;20460;-81
2021/09/01 12:49:44;;;;;;;0.50;0.30;;;19.40;99.90;;;;;;4985240;28;20478;-81
2021/09/01 12:52:12;;;;;;;0.50;0.30;;;19.40;99.90;;;;;;4984667;28;20464;-80
2021/09/01 12:54:40;;;;;;;0.50;0.30;;;19.40;99.90;;;;;;4985692;28;20444;-81